Погода Золотые Пескина неделю

Варна, Болгария

19 - 25 июля
  • 19июля
    Сегодня
    +23°
    +35°
    Практически безоблачно
    ВремяПогодаТемператураВлажностьДавлениеВетер, м/сВероятность осадков
    00:00Ясно и безоблачно+27°C59 %749 мм2.7 м/с2 %
    03:00Ясно и безоблачно+26°C58 %748 мм3.2 м/с2 %
    06:00Ясно и безоблачно+24°C59 %748 мм5.3 м/с2 %
    09:00Ясно и безоблачно+29°C55 %748 мм6.0 м/с2 %
    12:00Практически безоблачно+34°C43 %748 мм5.7 м/с2 %
    15:00Практически безоблачно+33°C44 %748 мм6.4 м/с2 %
    18:00Практически безоблачно+31°C54 %747 мм5.1 м/с7 %
    21:00Ясно и безоблачно+28°C65 %747 мм2.8 м/с2 %
  • 20июля
    Суббота
    +20°
    +33°
    Ясно и безоблачно
    ВремяПогодаТемператураВлажностьДавлениеВетер, м/сВероятность осадков
    00:00Ясно и безоблачно+26°C73 %747 мм1.7 м/с2 %
    03:00Ясно и безоблачно+24°C69 %746 мм3.4 м/с2 %
    06:00Ясно и безоблачно+23°C58 %746 мм4.8 м/с2 %
    09:00Ясно и безоблачно+29°C43 %746 мм5.0 м/с2 %
    12:00Ясно и безоблачно+33°C38 %746 мм4.6 м/с3 %
    15:00Ясно и безоблачно+32°C41 %745 мм5.8 м/с12 %
    18:00Ясно и безоблачно+30°C58 %745 мм4.6 м/с16 %
    21:00Ясно и безоблачно+26°C74 %745 мм3.3 м/с2 %
  • 21июля
    Воскресенье
    +20°
    +34°
    Небольшая облачность
    ВремяПогодаТемператураВлажностьДавлениеВетер, м/сВероятность осадков
    00:00Ясно и безоблачно+24°C84 %746 мм1.4 м/с2 %
    03:00Ясно и безоблачно+23°C86 %745 мм0.3 м/с2 %
    06:00Ясно и безоблачно+22°C90 %745 мм0.4 м/с2 %
    09:00Ясно и безоблачно+29°C59 %745 мм2.2 м/с2 %
    12:00Ясно и безоблачно+33°C48 %745 мм3.3 м/с2 %
    15:00Небольшая облачность+32°C43 %745 мм3.4 м/с10 %
    18:00Ясно и безоблачно+30°C47 %744 мм3.4 м/с6 %
    21:00Ясно и безоблачно+26°C61 %744 мм2.1 м/с2 %
  • 22июля
    Понедельник
    +22°
    +33°
    Небольшая облачность и лёгкий дождик
    ВремяПогодаТемператураВлажностьДавлениеВетер, м/сВероятность осадков
    00:00Ясно и безоблачно+24°C69 %744 мм2.2 м/с2 %
    03:00Ясно и безоблачно+23°C75 %743 мм1.9 м/с2 %
    06:00Ясно и безоблачно+23°C81 %743 мм1.8 м/с2 %
    09:00Практически безоблачно+28°C60 %744 мм0.7 м/с2 %
    12:00Практически безоблачно+32°C58 %744 мм3.5 м/с17 %
    15:00Небольшая облачность и лёгкий дождик+31°C55 %744 мм3.7 м/с47 %
    18:00Облачно с прояснениями+29°C61 %744 мм3.7 м/с43 %
    21:00Облачно с прояснениями+27°C69 %744 мм1.9 м/с13 %
Мы используем cookies
Соглашаюсь